Druzhba, Ukraine
Current Conditions -  °F | °C
As of 8:00 PM on Thursday 23 Oct 2014 (Local Time) from UUOK Reporting Station
Clear Clear  
Wind Chill: 17°   Ceiling: Unl
Heat Index: 25°   Visibility: 6mi
Dew Point: 14°   Wind: 7mph
Humidity: 64%   Direction: 360°N
Pressure: 30.36"   Gusts: NA
Location:  52.04°N, 33.94°E
Report Text: UUOK 231700Z 36003MPS CAVOK M04/M10 Q1028 NOSIG RMK 30CLRD70
Loading
Personal Weather Stations






























Interactive Weather Map
Tropical Storm Tracking
New forecast layout! Learn more

10-Day Weather Forecast

Advertisements
Track Severe Weather on mobile